This is the latest recevied weather packets stored in our database for station/object KC2TER. If no packets are shown the sender has not sent any weather packets the latest 10 day(s).
| Time | Temp. | Humidity | Pressure | Rain* | Wind** | Luminosity | Snow |
|---|---|---|---|---|---|---|---|
| 1778160901 | 11.67° C | 79% | 1011.1 hPa | 0 mm | - | 205 W/m² | - |
| 1778160599 | 11.67° C | 80% | 1011.2 hPa | 0 mm | - | 168 W/m² | - |
| 1778160295 | 11.67° C | 80% | 1011.6 hPa | 0 mm | - | 169 W/m² | - |
| 1778159991 | 11.67° C | 81% | 1011.4 hPa | 0 mm | - | 187 W/m² | - |
| 1778159689 | 11.67° C | 81% | 1011.3 hPa | 0 mm | - | 165 W/m² | - |
| 1778159385 | 11.11° C | 82% | 1011.4 hPa | 0 mm | - | 171 W/m² | - |
| 1778159082 | 11.11° C | 82% | 1011.3 hPa | 0 mm | - | 154 W/m² | - |
| 1778158781 | 11.11° C | 82% | 1011.5 hPa | 0 mm | - | 112 W/m² | - |
| 1778158479 | 11.11° C | 84% | 1011.1 hPa | 0 mm | - | 180 W/m² | - |
| 1778158176 | 10.56° C | 85% | 1011.4 hPa | 0 mm | - | 124 W/m² | - |
| 1778157872 | 10.56° C | 85% | 1011.3 hPa | 0 mm | - | 81 W/m² | - |
| 1778157571 | 10.56° C | 86% | 1011.4 hPa | 0 mm | - | 67 W/m² | - |
| 1778157268 | 10.56° C | 86% | 1011.6 hPa | 0 mm | - | 87 W/m² | - |
| 1778156964 | 10.56° C | 87% | 1011.5 hPa | 0 mm | - | 66 W/m² | - |
| 1778156659 | 10.56° C | 88% | 1011.4 hPa | 0 mm | - | 63 W/m² | - |
| 1778156356 | 10.56° C | 89% | 1011.3 hPa | 0 mm | - | 41 W/m² | - |
| 1778156051 | 10.56° C | 89% | 1011.5 hPa | 0 mm | - | 44 W/m² | - |
| 1778155748 | 10.56° C | 89% | 1011.5 hPa | 0 mm | - | 35 W/m² | - |
| 1778155444 | 10.56° C | 90% | 1011.4 hPa | 0 mm | - | 69 W/m² | - |
| 1778155141 | 10.56° C | 91% | 1011.2 hPa | 0 mm | - | 90 W/m² | - |
| 1778154836 | 10.56° C | 91% | 1011.2 hPa | 0 mm | - | 76 W/m² | - |
| 1778154532 | 10.56° C | 91% | 1011.1 hPa | 0 mm | - | 54 W/m² | - |
| 1778154230 | 10.56° C | 92% | 1011.3 hPa | 0 mm | - | 33 W/m² | - |
| 1778153927 | 10.56° C | 92% | 1010.9 hPa | 0 mm | - | 59 W/m² | - |
| 1778153624 | 10.56° C | 92% | 1010.9 hPa | 0 mm | - | 42 W/m² | - |
* Rain latest hour (hover to see other rain measurements)
** Current wind speed in m/s (hover to see current wind gust speed)